Pagrindinis puslapis
METAR-TAF:

METAR-TAF

Oro uostai :

Mumbajus, Indija

platuma: 19-07N, ilguma: 072-51E, Aukštis: 8 m

Dabartinis oras

Ataskaita buvo paskelbta 19 minutes, ne 22:00 UTC
Ramus vėjas
Temperatūra 26°C
Drėgmė 70%
Slėgis 1012 hPa
Matomumas: 3000 m
migla

METAR: VABB 292200Z 00000KT 3000 HZ NSC 26/20 Q1012 NOSIG

Laikas: 03:49 (22:19 UTC)

Prognozė

Ataskaita buvo paskelbta 2 valandos ir 19 minutes, ne 20:00 UTC
Prognozė galioja nuo 29 metu 21 UTC su 30 metu 06 UTC
Vėjas 5 kt iš Šiaurės/Šiaurės Vakarų
Matomumas: 3000 m
migla
Tapsmas
nuo 29 metu 22 UTC su 29 metu 24 UTC
Vėjas 5 kt iš Šiaurės Rytų
Matomumas: 2500 m
Mažai debesys ne aukštis 2000 ft
migla

TAF: VABB 292000Z 2921/3006 34005KT 3000 HZ NSC BECMG 2922/2924 04005KT 2500 HZ FEW020

Orai ataskaitas ir orų prognozės (METAR, TAF).

turimą stotys yra geltonos ir raudonos taškus žemėlapyje.

Perkelti pele per norėdami pamatyti stoties vardą.

Tada spustelėkite, norėdami matyti oro stebėjimo ir prognozės.

Norėdami pakeisti žemėlapį: spustelėkite ant žalios mygtukų su juodo kryžiaus žemyn,; žalią mygtuką su brūkšneliu, jei norite nutolinti; arba žalių rodyklių gretimoms žemėlapius.


METAR-TAF: